createdAt,value
2023-05-14T00:01:11.589Z,98436.25
2023-05-14T00:04:14.418Z,98433.81
2023-05-14T00:07:17.303Z,98433.84
2023-05-14T00:10:22.255Z,98431.63
2023-05-14T00:13:26.131Z,98424.91
2023-05-14T00:16:29.179Z,98419.75
2023-05-14T00:19:32.205Z,98414.41
2023-05-14T00:22:35.303Z,98418.59
2023-05-14T00:25:38.131Z,98420.09
2023-05-14T00:28:40.819Z,98417.63
2023-05-14T00:31:44.031Z,98407.41
2023-05-14T00:34:46.860Z,98406.16
2023-05-14T00:37:49.576Z,98399.13
2023-05-14T00:40:52.345Z,98404.53
2023-05-14T00:43:55.355Z,98393.88
2023-05-14T00:46:59.092Z,98395.56
2023-05-14T00:50:04.154Z,98396.13
2023-05-14T00:53:10.723Z,98393.31
2023-05-14T00:56:14.577Z,98397.47
2023-05-14T00:59:17.297Z,98402.03
2023-05-14T01:02:20.308Z,98399.00
2023-05-14T01:05:25.151Z,98398.00
2023-05-14T01:08:30.963Z,98400.63
2023-05-14T01:11:55.877Z,98400.34
2023-05-14T01:15:13.335Z,98392.22
2023-05-14T01:18:20.013Z,98393.31
2023-05-14T01:21:41.109Z,98390.00
2023-05-14T01:24:44.047Z,98388.94
2023-05-14T01:27:55.821Z,98389.19
2023-05-14T01:31:12.913Z,98381.59
2023-05-14T01:34:16.784Z,98371.66
2023-05-14T01:37:19.973Z,98368.22
2023-05-14T01:40:24.061Z,98377.44
2023-05-14T01:43:27.702Z,98374.28
2023-05-14T01:46:34.382Z,98371.75
2023-05-14T01:49:37.532Z,98371.22
2023-05-14T01:52:40.149Z,98350.66
2023-05-14T01:55:43.072Z,98364.06
2023-05-14T01:58:45.926Z,98358.53
2023-05-14T02:01:48.924Z,98356.91
2023-05-14T02:04:52.890Z,98357.44
2023-05-14T02:07:55.604Z,98357.00
2023-05-14T02:10:58.375Z,98348.59
2023-05-14T02:14:01.905Z,98343.19
2023-05-14T02:17:04.808Z,98341.44
2023-05-14T02:20:08.136Z,98343.63
2023-05-14T02:23:11.041Z,98345.28
2023-05-14T02:26:14.037Z,98340.88
2023-05-14T02:29:16.967Z,98348.03
2023-05-14T02:32:19.892Z,98337.53
2023-05-14T02:35:23.207Z,98346.50
2023-05-14T02:38:26.807Z,98342.78
2023-05-14T02:41:31.058Z,98337.25
2023-05-14T02:44:33.698Z,98334.94
2023-05-14T02:47:38.001Z,98323.63
2023-05-14T02:50:41.048Z,98327.75
2023-05-14T02:53:43.922Z,98328.41
2023-05-14T02:56:47.654Z,98322.63
2023-05-14T02:59:50.302Z,98318.47
2023-05-14T03:02:53.716Z,98324.84
2023-05-14T03:05:57.409Z,98323.97
2023-05-14T03:09:00.248Z,98324.84
2023-05-14T03:12:02.949Z,98325.69
2023-05-14T03:15:06.186Z,98322.50
2023-05-14T03:18:09.163Z,98329.25
2023-05-14T03:21:11.959Z,98325.66
2023-05-14T03:24:14.942Z,98328.13
2023-05-14T03:27:17.822Z,98322.09
2023-05-14T03:30:20.676Z,98322.09
2023-05-14T03:33:24.320Z,98326.06
2023-05-14T03:36:27.292Z,98325.13
2023-05-14T03:39:30.375Z,98325.25
2023-05-14T03:42:33.094Z,98325.69
2023-05-14T03:45:36.086Z,98326.09
2023-05-14T03:48:38.929Z,98322.91
2023-05-14T03:51:41.781Z,98326.09
2023-05-14T03:54:44.960Z,98316.28
2023-05-14T03:57:51.171Z,98327.88
2023-05-14T04:00:54.144Z,98320.78
2023-05-14T04:03:57.263Z,98322.84
2023-05-14T04:07:00.364Z,98324.59
2023-05-14T04:10:06.276Z,98318.28
2023-05-14T04:13:11.514Z,98325.28
2023-05-14T04:16:15.819Z,98317.00
2023-05-14T04:19:18.877Z,98307.03
2023-05-14T04:22:21.780Z,98316.72
2023-05-14T04:25:24.462Z,98322.75
2023-05-14T04:28:27.270Z,98316.94
2023-05-14T04:31:31.032Z,98312.88
2023-05-14T04:34:33.732Z,98314.53
2023-05-14T04:37:36.575Z,98314.84
2023-05-14T04:40:40.590Z,98313.88
2023-05-14T04:43:43.327Z,98314.78
2023-05-14T04:46:45.991Z,98300.72
2023-05-14T04:49:50.864Z,98306.44
2023-05-14T04:52:53.855Z,98298.19
2023-05-14T04:55:56.667Z,98303.16
2023-05-14T04:58:59.923Z,98300.50
2023-05-14T05:02:02.657Z,98298.03
2023-05-14T05:05:06.074Z,98291.63
2023-05-14T05:08:09.099Z,98288.81
2023-05-14T05:11:11.835Z,98288.81
2023-05-14T05:14:14.894Z,98283.53
2023-05-14T05:17:17.856Z,98277.13
2023-05-14T05:20:20.788Z,98277.13
2023-05-14T05:23:23.648Z,98275.09
2023-05-14T05:26:28.650Z,98274.13
2023-05-14T05:29:31.588Z,98278.41
2023-05-14T05:32:34.833Z,98283.34
2023-05-14T05:35:38.179Z,98284.03
2023-05-14T05:38:40.861Z,98289.75
2023-05-14T05:41:44.261Z,98297.84
2023-05-14T05:44:47.083Z,98291.22
2023-05-14T05:47:50.006Z,98298.50
2023-05-14T05:50:55.647Z,98306.06
2023-05-14T05:53:58.553Z,98310.81
2023-05-14T05:57:01.481Z,98305.53
2023-05-14T06:00:13.575Z,98301.50
2023-05-14T06:03:16.553Z,98289.16
2023-05-14T06:06:19.488Z,98290.88
2023-05-14T06:09:22.225Z,98298.38
2023-05-14T06:12:25.174Z,98301.97
2023-05-14T06:15:27.943Z,98297.38
2023-05-14T06:18:30.673Z,98298.06
2023-05-14T06:21:33.680Z,98291.28
2023-05-14T06:24:36.420Z,98295.97
2023-05-14T06:27:39.403Z,98289.59
2023-05-14T06:30:42.389Z,98289.75
2023-05-14T06:33:45.728Z,98292.09
2023-05-14T06:36:48.466Z,98292.28
2023-05-14T06:39:51.308Z,98302.69
2023-05-14T06:42:54.420Z,98284.03
2023-05-14T06:45:57.393Z,98275.44
2023-05-14T06:49:00.450Z,98278.75
2023-05-14T06:52:03.943Z,98278.06
2023-05-14T06:55:07.231Z,98266.88
2023-05-14T06:58:10.432Z,98255.97
2023-05-14T07:01:13.232Z,98252.03
2023-05-14T07:04:16.032Z,98257.16
2023-05-14T07:07:21.393Z,98253.19
2023-05-14T07:10:24.706Z,98247.09
2023-05-14T07:13:28.951Z,98246.59
2023-05-14T07:16:31.953Z,98240.94
2023-05-14T07:19:34.992Z,98242.44
2023-05-14T07:22:37.843Z,98241.44
2023-05-14T07:25:41.011Z,98237.75
2023-05-14T07:28:43.965Z,98245.38
2023-05-14T07:31:47.157Z,98236.16
2023-05-14T07:34:50.819Z,98241.44
2023-05-14T07:37:53.708Z,98237.50
2023-05-14T07:40:56.637Z,98239.81
2023-05-14T07:43:59.506Z,98238.50
2023-05-14T07:47:02.426Z,98244.09
2023-05-14T07:50:08.001Z,98240.16
2023-05-14T07:53:10.925Z,98242.16
2023-05-14T07:56:13.871Z,98240.16
2023-05-14T07:59:16.790Z,98245.13
2023-05-14T08:02:22.088Z,98249.22
2023-05-14T08:05:25.160Z,98245.59
2023-05-14T08:08:28.243Z,98241.47
2023-05-14T08:11:31.553Z,98243.13
2023-05-14T08:14:34.641Z,98244.78
2023-05-14T08:17:37.409Z,98241.63
2023-05-14T08:20:40.455Z,98240.50
2023-05-14T08:23:43.286Z,98240.16
2023-05-14T08:26:46.190Z,98235.38
2023-05-14T08:29:52.147Z,98248.19
2023-05-14T08:32:55.163Z,98247.06
2023-05-14T08:36:00.841Z,98244.06
2023-05-14T08:39:04.007Z,98244.06
2023-05-14T08:42:11.120Z,98233.38
2023-05-14T08:45:19.480Z,98229.09
2023-05-14T08:48:23.770Z,98236.34
2023-05-14T08:51:27.383Z,98236.34
2023-05-14T08:54:32.977Z,98237.16
2023-05-14T08:57:36.213Z,98232.88
2023-05-14T09:00:39.355Z,98217.53
2023-05-14T09:03:43.198Z,98211.63
2023-05-14T09:06:48.694Z,98206.50
2023-05-14T09:09:55.373Z,98197.59
2023-05-14T09:12:58.524Z,98197.19
2023-05-14T09:16:01.489Z,98196.81
2023-05-14T09:19:05.328Z,98206.31
2023-05-14T09:22:16.299Z,98205.56
2023-05-14T09:25:19.212Z,98200.41
2023-05-14T09:28:23.253Z,98200.50
2023-05-14T09:31:26.094Z,98195.94
2023-05-14T09:34:30.893Z,98189.97
2023-05-14T09:37:37.019Z,98183.13
2023-05-14T09:40:40.116Z,98177.28
2023-05-14T09:43:43.283Z,98184.53
2023-05-14T09:46:47.100Z,98173.06
2023-05-14T09:49:51.223Z,98172.59
2023-05-14T09:52:56.287Z,98158.94
2023-05-14T09:55:59.171Z,98166.41
2023-05-14T09:59:02.354Z,98168.72
2023-05-14T10:02:07.057Z,98164.44
2023-05-14T10:05:10.943Z,98168.81
2023-05-14T10:08:17.228Z,98157.50
2023-05-14T10:11:25.397Z,98162.00
2023-05-14T10:14:34.686Z,98157.47
2023-05-14T10:17:40.181Z,98156.69
2023-05-14T10:20:43.768Z,98149.81
2023-05-14T10:23:47.388Z,98144.16
2023-05-14T10:26:50.657Z,98135.56
2023-05-14T10:29:55.102Z,98139.59
2023-05-14T10:33:12.830Z,98140.47
2023-05-14T10:36:15.854Z,98134.72
2023-05-14T10:39:18.909Z,98143.66
2023-05-14T10:42:30.520Z,98129.88
2023-05-14T10:45:34.941Z,98133.56
2023-05-14T10:48:40.675Z,98115.91
2023-05-14T10:51:43.797Z,98119.66
2023-05-14T10:55:12.832Z,98111.09
2023-05-14T10:58:16.142Z,98103.00
2023-05-14T11:01:19.145Z,98106.84
2023-05-14T11:04:25.585Z,98099.09
2023-05-14T11:07:39.777Z,98098.84
2023-05-14T11:10:43.541Z,98102.88
2023-05-14T11:13:46.823Z,98098.19
2023-05-14T11:16:50.788Z,98097.69
2023-05-14T11:19:55.153Z,98083.78
2023-05-14T11:22:58.442Z,98083.84
2023-05-14T11:26:02.092Z,98089.22
2023-05-14T11:29:06.280Z,98085.25
2023-05-14T11:32:09.898Z,98086.81
2023-05-14T11:35:14.183Z,98072.72
2023-05-14T11:38:18.912Z,98075.81
2023-05-14T11:41:23.667Z,98068.47
2023-05-14T11:44:26.741Z,98070.25
2023-05-14T11:47:30.194Z,98071.81
2023-05-14T11:50:37.073Z,98055.09
2023-05-14T11:53:40.159Z,98059.19
2023-05-14T11:56:42.978Z,98056.03
2023-05-14T11:59:46.286Z,98060.03
2023-05-14T12:02:50.634Z,98065.19
2023-05-14T12:06:00.224Z,98044.41
2023-05-14T12:09:05.800Z,98031.81
2023-05-14T12:12:12.953Z,98029.69
2023-05-14T12:15:19.317Z,98021.25
2023-05-14T12:18:24.995Z,98015.31
2023-05-14T12:21:29.257Z,98020.31
2023-05-14T12:24:32.112Z,98027.84
2023-05-14T12:27:37.886Z,98009.41
2023-05-14T12:30:41.794Z,98000.38
2023-05-14T12:33:44.589Z,98003.72
2023-05-14T12:36:47.617Z,98001.00
2023-05-14T12:39:50.440Z,97994.16
2023-05-14T12:42:54.954Z,97989.25
2023-05-14T12:46:00.166Z,97989.25
2023-05-14T12:49:03.031Z,97989.44
2023-05-14T12:52:22.727Z,97974.47
2023-05-14T12:55:32.695Z,97971.28
2023-05-14T12:58:35.541Z,97971.09
2023-05-14T13:01:38.793Z,97974.41
2023-05-14T13:04:42.016Z,97960.72
2023-05-14T13:07:46.404Z,97948.56
2023-05-14T13:10:55.378Z,97944.63
2023-05-14T13:14:21.923Z,97953.34
2023-05-14T13:17:35.837Z,97939.69
2023-05-14T13:20:44.591Z,97944.28
2023-05-14T13:23:48.361Z,97928.78
2023-05-14T13:26:51.294Z,97935.41
2023-05-14T13:29:54.253Z,97916.09
2023-05-14T13:32:57.076Z,97909.81
2023-05-14T13:35:59.995Z,97899.88
2023-05-14T13:39:03.251Z,97905.94
2023-05-14T13:42:06.649Z,97912.47
2023-05-14T13:45:10.378Z,97914.72
2023-05-14T13:48:13.484Z,97918.47
2023-05-14T13:51:16.500Z,97920.13
2023-05-14T13:54:19.454Z,97915.78
2023-05-14T13:57:23.527Z,97909.56
2023-05-14T14:00:28.809Z,97902.34
2023-05-14T14:03:31.785Z,97901.34
2023-05-14T14:06:34.572Z,97898.72
2023-05-14T14:09:37.885Z,97892.31
2023-05-14T14:12:41.145Z,97895.50
2023-05-14T14:15:44.276Z,97892.44
2023-05-14T14:18:50.467Z,97892.72
2023-05-14T14:21:53.518Z,97900.88
2023-05-14T14:24:56.559Z,97901.31
2023-05-14T14:27:59.427Z,97900.03
2023-05-14T14:31:02.840Z,97898.91
2023-05-14T14:34:05.880Z,97890.38
2023-05-14T14:37:10.513Z,97888.53
2023-05-14T14:40:16.855Z,97886.47
2023-05-14T14:43:19.726Z,97881.41
2023-05-14T14:46:22.642Z,97885.28
2023-05-14T14:49:26.810Z,97878.63
2023-05-14T14:52:29.665Z,97869.06
2023-05-14T14:55:44.532Z,97867.97
2023-05-14T15:02:22.038Z,97852.00
2023-05-14T15:05:32.548Z,97861.75
2023-05-14T15:08:36.128Z,97852.63
2023-05-14T15:11:41.308Z,97864.03
2023-05-14T15:14:44.109Z,97853.94
2023-05-14T15:17:47.160Z,97863.19
2023-05-14T15:20:50.538Z,97854.91
2023-05-14T15:23:53.678Z,97858.66
2023-05-14T15:26:56.555Z,97855.47
2023-05-14T15:29:59.557Z,97851.38
2023-05-14T15:33:18.045Z,97854.94
2023-05-14T15:36:21.018Z,97849.28
2023-05-14T15:39:24.183Z,97846.81
2023-05-14T15:42:28.777Z,97843.28
2023-05-14T15:45:37.187Z,97838.47
2023-05-14T15:48:42.672Z,97834.25
2023-05-14T15:51:45.488Z,97835.31
2023-05-14T15:54:48.531Z,97836.34
2023-05-14T15:57:51.230Z,97841.63
2023-05-14T16:00:54.455Z,97834.94
2023-05-14T16:03:57.306Z,97838.16
2023-05-14T16:07:08.780Z,97827.78
2023-05-14T16:10:17.765Z,97818.59
2023-05-14T16:13:21.056Z,97817.13
2023-05-14T16:16:25.534Z,97810.13
2023-05-14T16:19:29.213Z,97797.41
2023-05-14T16:22:35.608Z,97797.63
2023-05-14T16:25:38.914Z,97794.50
2023-05-14T16:28:45.299Z,97777.75
2023-05-14T16:31:48.493Z,97777.75
2023-05-14T16:34:51.730Z,97769.25
2023-05-14T16:37:55.010Z,97767.09
2023-05-14T16:41:00.450Z,97758.03
2023-05-14T16:44:03.783Z,97762.16
2023-05-14T16:47:07.162Z,97762.69
2023-05-14T16:50:10.282Z,97760.00
2023-05-14T16:53:13.096Z,97755.06
2023-05-14T16:56:16.042Z,97757.47
2023-05-14T16:59:19.010Z,97752.06
2023-05-14T17:02:22.066Z,97738.88
2023-05-14T17:05:25.454Z,97739.38
2023-05-14T17:08:32.732Z,97739.50
2023-05-14T17:11:35.670Z,97731.94
2023-05-14T17:14:41.048Z,97738.53
2023-05-14T17:17:46.478Z,97731.94
2023-05-14T17:20:49.572Z,97724.69
2023-05-14T17:23:52.529Z,97731.59
2023-05-14T17:26:55.646Z,97732.13
2023-05-14T17:29:58.798Z,97726.19
2023-05-14T17:33:02.007Z,97708.91
2023-05-14T17:36:08.563Z,97710.59
2023-05-14T17:39:11.892Z,97709.50
2023-05-14T17:42:17.184Z,97702.41
2023-05-14T17:45:21.663Z,97696.66
2023-05-14T17:48:25.016Z,97705.41
2023-05-14T17:51:27.950Z,97705.75
2023-05-14T17:54:31.357Z,97711.50
2023-05-14T17:57:36.372Z,97704.72
2023-05-14T18:00:40.109Z,97699.13
2023-05-14T18:03:42.988Z,97703.44
2023-05-14T18:06:48.576Z,97695.56
2023-05-14T18:09:54.699Z,97687.38
2023-05-14T18:12:58.056Z,97687.03
2023-05-14T18:16:01.592Z,97683.72
2023-05-14T18:19:04.872Z,97681.28
2023-05-14T18:22:07.845Z,97676.66
2023-05-14T18:25:11.034Z,97670.56
2023-05-14T18:28:13.862Z,97669.56
2023-05-14T18:31:18.141Z,97672.56
2023-05-14T18:34:21.445Z,97670.53
2023-05-14T18:37:25.908Z,97669.56
2023-05-14T18:40:28.914Z,97676.50
2023-05-14T18:43:32.125Z,97665.63
2023-05-14T18:46:37.160Z,97660.72
2023-05-14T18:49:41.767Z,97656.78
2023-05-14T18:52:44.766Z,97658.47
2023-05-14T18:55:47.785Z,97650.88
2023-05-14T18:58:50.827Z,97657.81
2023-05-14T19:01:54.012Z,97662.41
2023-05-14T19:04:56.978Z,97650.03
2023-05-14T19:07:59.988Z,97650.88
2023-05-14T19:11:07.040Z,97651.88
2023-05-14T19:14:09.879Z,97642.75
2023-05-14T19:17:17.284Z,97637.56
2023-05-14T19:20:21.457Z,97630.19
2023-05-14T19:23:24.382Z,97632.78
2023-05-14T19:26:27.247Z,97632.44
2023-05-14T19:29:30.115Z,97637.69
2023-05-14T19:32:33.009Z,97630.78
2023-05-14T19:35:35.915Z,97622.56
2023-05-14T19:38:38.823Z,97616.28
2023-05-14T19:41:41.788Z,97609.38
2023-05-14T19:44:46.786Z,97594.41
2023-05-14T19:47:51.788Z,97597.22
2023-05-14T19:50:54.719Z,97587.84
2023-05-14T19:53:57.641Z,97575.34
2023-05-14T19:57:00.418Z,97573.50
2023-05-14T20:00:04.582Z,97568.75
2023-05-14T20:03:13.845Z,97569.09
2023-05-14T20:06:17.812Z,97571.56
2023-05-14T20:09:20.976Z,97567.94
2023-05-14T20:12:24.148Z,97570.41
2023-05-14T20:15:27.147Z,97557.75
2023-05-14T20:18:30.142Z,97554.19
2023-05-14T20:21:33.073Z,97550.25
2023-05-14T20:24:35.993Z,97529.53
2023-05-14T20:27:38.794Z,97530.56
2023-05-14T20:30:41.626Z,97517.09
2023-05-14T20:33:44.537Z,97525.00
2023-05-14T20:36:47.220Z,97512.28
2023-05-14T20:39:51.735Z,97505.19
2023-05-14T20:42:54.775Z,97503.72
2023-05-14T20:45:59.404Z,97512.81
2023-05-14T20:49:02.613Z,97506.53
2023-05-14T20:52:05.498Z,97505.50
2023-05-14T20:55:08.950Z,97499.56
2023-05-14T20:58:14.836Z,97500.38
2023-05-14T21:01:19.957Z,97512.13
2023-05-14T21:04:23.540Z,97514.22
2023-05-14T21:07:27.604Z,97498.75
2023-05-14T21:10:31.729Z,97500.75
2023-05-14T21:13:34.384Z,97500.94
2023-05-14T21:16:37.344Z,97491.41
2023-05-14T21:19:40.068Z,97484.78
2023-05-14T21:22:42.756Z,97485.06
2023-05-14T21:25:45.952Z,97477.34
2023-05-14T21:28:49.077Z,97488.69
2023-05-14T21:31:51.794Z,97494.66
2023-05-14T21:34:54.933Z,97479.69
2023-05-14T21:37:57.783Z,97472.91
2023-05-14T21:41:02.934Z,97477.81
2023-05-14T21:44:09.968Z,97461.66
2023-05-14T21:47:12.607Z,97450.84
2023-05-14T21:50:16.943Z,97432.13
2023-05-14T21:53:19.856Z,97419.31
2023-05-14T21:56:22.813Z,97417.44
2023-05-14T21:59:28.038Z,97427.97
2023-05-14T22:02:31.705Z,97433.19
2023-05-14T22:05:34.726Z,97437.75
2023-05-14T22:08:37.483Z,97442.19
2023-05-14T22:11:40.312Z,97453.69
2023-05-14T22:14:43.201Z,97444.63
2023-05-14T22:17:47.339Z,97443.66
2023-05-14T22:20:50.037Z,97445.66
2023-05-14T22:23:52.895Z,97439.38
2023-05-14T22:26:56.049Z,97418.31
2023-05-14T22:29:59.069Z,97404.53
2023-05-14T22:33:01.931Z,97390.38
2023-05-14T22:36:04.905Z,97378.19
2023-05-14T22:39:07.699Z,97378.00
2023-05-14T22:42:12.743Z,97367.47
2023-05-14T22:45:15.756Z,97364.84
2023-05-14T22:48:18.397Z,97363.22
2023-05-14T22:51:21.434Z,97365.50
2023-05-14T22:54:24.223Z,97359.78
2023-05-14T22:57:27.143Z,97364.03
2023-05-14T23:00:29.940Z,97365.31
2023-05-14T23:03:34.043Z,97363.50
2023-05-14T23:06:37.097Z,97364.03
2023-05-14T23:09:39.832Z,97370.94
2023-05-14T23:12:42.993Z,97363.03
2023-05-14T23:15:46.197Z,97364.97
2023-05-14T23:18:49.833Z,97352.59
2023-05-14T23:21:53.029Z,97357.00
2023-05-14T23:24:55.815Z,97350.06
2023-05-14T23:27:58.536Z,97337.00
2023-05-14T23:31:03.363Z,97330.72
2023-05-14T23:34:06.225Z,97324.81
2023-05-14T23:37:09.055Z,97323.84
2023-05-14T23:40:11.980Z,97319.53
2023-05-14T23:43:15.400Z,97318.94
2023-05-14T23:46:18.149Z,97320.56
2023-05-14T23:49:20.875Z,97319.19
2023-05-14T23:52:23.566Z,97321.38
2023-05-14T23:55:26.556Z,97313.47
2023-05-14T23:58:30.558Z,97311.66
